sensor_id;sensor_type;location;lat;lon;timestamp;P1;durP1;ratioP1;P2;durP2;ratioP2
78298;SDS011;67556;55.656;12.590;2024-02-26T00:00:06;7.63;;;6.22;;
78298;SDS011;67556;55.656;12.590;2024-02-26T00:02:53;11.23;;;6.75;;
78298;SDS011;67556;55.656;12.590;2024-02-26T00:05:32;7.82;;;6.38;;
78298;SDS011;67556;55.656;12.590;2024-02-26T00:08:17;9.02;;;6.43;;
78298;SDS011;67556;55.656;12.590;2024-02-26T00:10:45;7.80;;;6.63;;
78298;SDS011;67556;55.656;12.590;2024-02-26T00:13:30;7.72;;;5.78;;
78298;SDS011;67556;55.656;12.590;2024-02-26T00:15:57;7.78;;;6.70;;
78298;SDS011;67556;55.656;12.590;2024-02-26T00:18:41;7.72;;;5.97;;
78298;SDS011;67556;55.656;12.590;2024-02-26T00:21:08;7.45;;;6.00;;
78298;SDS011;67556;55.656;12.590;2024-02-26T00:23:35;8.13;;;6.80;;
78298;SDS011;67556;55.656;12.590;2024-02-26T00:26:22;9.25;;;6.85;;
78298;SDS011;67556;55.656;12.590;2024-02-26T00:28:48;8.63;;;6.72;;
78298;SDS011;67556;55.656;12.590;2024-02-26T00:31:33;9.75;;;7.03;;
78298;SDS011;67556;55.656;12.590;2024-02-26T00:34:19;7.95;;;5.90;;
78298;SDS011;67556;55.656;12.590;2024-02-26T00:36:46;8.15;;;6.47;;
78298;SDS011;67556;55.656;12.590;2024-02-26T00:39:14;8.40;;;6.35;;
78298;SDS011;67556;55.656;12.590;2024-02-26T00:41:59;9.30;;;6.40;;
78298;SDS011;67556;55.656;12.590;2024-02-26T00:44:26;11.25;;;6.35;;
78298;SDS011;67556;55.656;12.590;2024-02-26T00:46:53;8.10;;;6.68;;
78298;SDS011;67556;55.656;12.590;2024-02-26T00:49:26;10.35;;;7.45;;
78298;SDS011;67556;55.656;12.590;2024-02-26T00:52:03;8.88;;;6.68;;
78298;SDS011;67556;55.656;12.590;2024-02-26T00:54:30;8.55;;;6.70;;
78298;SDS011;67556;55.656;12.590;2024-02-26T00:56:57;9.20;;;6.80;;
78298;SDS011;67556;55.656;12.590;2024-02-26T00:59:44;9.57;;;7.70;;
78298;SDS011;67556;55.656;12.590;2024-02-26T01:02:10;9.73;;;7.65;;
78298;SDS011;67556;55.656;12.590;2024-02-26T01:04:38;9.35;;;7.32;;
78298;SDS011;67556;55.656;12.590;2024-02-26T01:07:20;9.80;;;7.38;;
78298;SDS011;67556;55.656;12.590;2024-02-26T01:09:59;9.90;;;8.43;;
78298;SDS011;67556;55.656;12.590;2024-02-26T01:12:29;9.57;;;7.47;;
78298;SDS011;67556;55.656;12.590;2024-02-26T01:15:16;10.23;;;8.30;;
78298;SDS011;67556;55.656;12.590;2024-02-26T01:17:53;10.70;;;7.68;;
78298;SDS011;67556;55.656;12.590;2024-02-26T01:20:39;10.45;;;7.63;;
78298;SDS011;67556;55.656;12.590;2024-02-26T01:23:05;11.85;;;8.93;;
78298;SDS011;67556;55.656;12.590;2024-02-26T01:25:50;10.50;;;8.02;;
78298;SDS011;67556;55.656;12.590;2024-02-26T01:28:17;9.95;;;7.95;;
78298;SDS011;67556;55.656;12.590;2024-02-26T01:31:03;10.55;;;8.00;;
78298;SDS011;67556;55.656;12.590;2024-02-26T01:33:31;11.45;;;8.25;;
78298;SDS011;67556;55.656;12.590;2024-02-26T01:36:16;11.30;;;8.93;;
78298;SDS011;67556;55.656;12.590;2024-02-26T01:38:48;12.45;;;9.85;;
78298;SDS011;67556;55.656;12.590;2024-02-26T01:41:33;12.70;;;8.73;;
78298;SDS011;67556;55.656;12.590;2024-02-26T01:44:18;12.80;;;8.65;;
78298;SDS011;67556;55.656;12.590;2024-02-26T01:46:48;14.13;;;9.18;;
78298;SDS011;67556;55.656;12.590;2024-02-26T01:49:33;11.35;;;8.93;;
78298;SDS011;67556;55.656;12.590;2024-02-26T01:52:00;10.40;;;8.35;;
78298;SDS011;67556;55.656;12.590;2024-02-26T01:54:46;11.13;;;9.00;;
78298;SDS011;67556;55.656;12.590;2024-02-26T01:57:12;12.70;;;9.27;;
78298;SDS011;67556;55.656;12.590;2024-02-26T01:59:58;11.63;;;8.57;;
78298;SDS011;67556;55.656;12.590;2024-02-26T02:02:26;12.77;;;9.25;;
78298;SDS011;67556;55.656;12.590;2024-02-26T02:04:52;12.32;;;8.77;;
78298;SDS011;67556;55.656;12.590;2024-02-26T02:07:26;12.18;;;8.30;;
78298;SDS011;67556;55.656;12.590;2024-02-26T02:09:59;13.05;;;9.25;;
78298;SDS011;67556;55.656;12.590;2024-02-26T02:12:44;12.70;;;9.30;;
78298;SDS011;67556;55.656;12.590;2024-02-26T02:15:19;12.50;;;8.45;;
78298;SDS011;67556;55.656;12.590;2024-02-26T02:18:06;13.20;;;9.50;;
78298;SDS011;67556;55.656;12.590;2024-02-26T02:20:52;12.40;;;9.15;;
78298;SDS011;67556;55.656;12.590;2024-02-26T02:23:23;13.38;;;9.82;;
78298;SDS011;67556;55.656;12.590;2024-02-26T02:26:08;11.07;;;8.57;;
78298;SDS011;67556;55.656;12.590;2024-02-26T02:28:36;11.25;;;8.70;;
78298;SDS011;67556;55.656;12.590;2024-02-26T02:31:09;11.15;;;8.85;;
78298;SDS011;67556;55.656;12.590;2024-02-26T02:33:37;13.55;;;9.13;;
78298;SDS011;67556;55.656;12.590;2024-02-26T02:36:06;11.45;;;8.98;;
78298;SDS011;67556;55.656;12.590;2024-02-26T02:38:50;14.27;;;10.38;;
78298;SDS011;67556;55.656;12.590;2024-02-26T02:41:18;11.93;;;9.10;;
78298;SDS011;67556;55.656;12.590;2024-02-26T02:43:44;12.38;;;9.48;;
78298;SDS011;67556;55.656;12.590;2024-02-26T02:46:11;11.02;;;9.13;;
78298;SDS011;67556;55.656;12.590;2024-02-26T02:48:45;14.23;;;9.45;;
78298;SDS011;67556;55.656;12.590;2024-02-26T02:51:20;12.52;;;9.23;;
78298;SDS011;67556;55.656;12.590;2024-02-26T02:53:47;13.48;;;9.82;;
78298;SDS011;67556;55.656;12.590;2024-02-26T02:56:20;14.95;;;9.77;;
78298;SDS011;67556;55.656;12.590;2024-02-26T02:58:46;14.18;;;10.43;;
78298;SDS011;67556;55.656;12.590;2024-02-26T03:01:31;12.30;;;9.13;;
78298;SDS011;67556;55.656;12.590;2024-02-26T03:04:03;14.05;;;8.68;;
78298;SDS011;67556;55.656;12.590;2024-02-26T03:06:53;11.52;;;9.18;;
78298;SDS011;67556;55.656;12.590;2024-02-26T03:09:35;12.57;;;8.88;;
78298;SDS011;67556;55.656;12.590;2024-02-26T03:12:03;11.68;;;9.00;;
78298;SDS011;67556;55.656;12.590;2024-02-26T03:14:30;12.35;;;9.63;;
78298;SDS011;67556;55.656;12.590;2024-02-26T03:17:00;13.98;;;10.32;;
78298;SDS011;67556;55.656;12.590;2024-02-26T03:19:45;14.68;;;10.07;;
78298;SDS011;67556;55.656;12.590;2024-02-26T03:22:20;15.05;;;10.77;;
78298;SDS011;67556;55.656;12.590;2024-02-26T03:27:24;14.05;;;9.80;;
78298;SDS011;67556;55.656;12.590;2024-02-26T03:29:54;13.75;;;10.35;;
78298;SDS011;67556;55.656;12.590;2024-02-26T03:32:39;13.35;;;9.82;;
78298;SDS011;67556;55.656;12.590;2024-02-26T03:35:17;14.85;;;10.38;;
78298;SDS011;67556;55.656;12.590;2024-02-26T03:38:04;17.35;;;11.70;;
78298;SDS011;67556;55.656;12.590;2024-02-26T03:40:44;18.88;;;11.65;;
78298;SDS011;67556;55.656;12.590;2024-02-26T03:43:29;14.15;;;10.48;;
78298;SDS011;67556;55.656;12.590;2024-02-26T03:46:15;15.68;;;11.45;;
78298;SDS011;67556;55.656;12.590;2024-02-26T03:49:00;16.67;;;11.75;;
78298;SDS011;67556;55.656;12.590;2024-02-26T03:51:27;15.77;;;10.80;;
78298;SDS011;67556;55.656;12.590;2024-02-26T03:54:17;14.60;;;10.68;;
78298;SDS011;67556;55.656;12.590;2024-02-26T03:57:03;15.80;;;11.27;;
78298;SDS011;67556;55.656;12.590;2024-02-26T03:59:30;15.40;;;11.18;;
78298;SDS011;67556;55.656;12.590;2024-02-26T04:02:15;16.73;;;11.65;;
78298;SDS011;67556;55.656;12.590;2024-02-26T04:04:44;17.73;;;11.50;;
78298;SDS011;67556;55.656;12.590;2024-02-26T04:07:29;18.60;;;12.32;;
78298;SDS011;67556;55.656;12.590;2024-02-26T04:09:57;19.63;;;12.93;;
78298;SDS011;67556;55.656;12.590;2024-02-26T04:12:42;17.10;;;11.55;;
78298;SDS011;67556;55.656;12.590;2024-02-26T04:15:09;19.45;;;12.63;;
78298;SDS011;67556;55.656;12.590;2024-02-26T04:17:57;17.88;;;11.32;;
78298;SDS011;67556;55.656;12.590;2024-02-26T04:20:42;18.77;;;12.10;;
78298;SDS011;67556;55.656;12.590;2024-02-26T04:23:09;18.08;;;11.45;;
78298;SDS011;67556;55.656;12.590;2024-02-26T04:25:56;18.40;;;11.43;;
78298;SDS011;67556;55.656;12.590;2024-02-26T04:28:22;16.35;;;10.85;;
78298;SDS011;67556;55.656;12.590;2024-02-26T04:31:03;19.30;;;12.38;;
78298;SDS011;67556;55.656;12.590;2024-02-26T04:33:48;14.27;;;10.95;;
78298;SDS011;67556;55.656;12.590;2024-02-26T04:36:33;17.35;;;12.43;;
78298;SDS011;67556;55.656;12.590;2024-02-26T04:38:59;19.67;;;13.40;;
78298;SDS011;67556;55.656;12.590;2024-02-26T04:41:34;19.27;;;12.02;;
78298;SDS011;67556;55.656;12.590;2024-02-26T04:44:19;15.70;;;11.75;;
78298;SDS011;67556;55.656;12.590;2024-02-26T04:46:45;15.68;;;10.77;;
78298;SDS011;67556;55.656;12.590;2024-02-26T04:49:30;20.85;;;12.13;;
78298;SDS011;67556;55.656;12.590;2024-02-26T04:51:57;16.90;;;10.93;;
78298;SDS011;67556;55.656;12.590;2024-02-26T04:54:32;21.23;;;14.07;;
78298;SDS011;67556;55.656;12.590;2024-02-26T04:57:25;21.00;;;13.48;;
78298;SDS011;67556;55.656;12.590;2024-02-26T04:59:52;18.05;;;12.27;;
78298;SDS011;67556;55.656;12.590;2024-02-26T05:02:37;19.83;;;13.07;;
78298;SDS011;67556;55.656;12.590;2024-02-26T05:05:23;17.20;;;11.88;;
78298;SDS011;67556;55.656;12.590;2024-02-26T05:07:50;18.55;;;12.65;;
78298;SDS011;67556;55.656;12.590;2024-02-26T05:10:35;18.52;;;12.98;;
78298;SDS011;67556;55.656;12.590;2024-02-26T05:13:07;20.15;;;12.18;;
78298;SDS011;67556;55.656;12.590;2024-02-26T05:15:52;20.30;;;12.70;;
78298;SDS011;67556;55.656;12.590;2024-02-26T05:18:43;15.98;;;10.75;;
78298;SDS011;67556;55.656;12.590;2024-02-26T05:21:10;18.85;;;11.93;;
78298;SDS011;67556;55.656;12.590;2024-02-26T05:23:55;18.15;;;12.48;;
78298;SDS011;67556;55.656;12.590;2024-02-26T05:26:21;20.20;;;12.82;;
78298;SDS011;67556;55.656;12.590;2024-02-26T05:29:08;18.95;;;13.35;;
78298;SDS011;67556;55.656;12.590;2024-02-26T05:31:35;18.70;;;12.73;;
78298;SDS011;67556;55.656;12.590;2024-02-26T05:34:09;20.30;;;13.65;;
78298;SDS011;67556;55.656;12.590;2024-02-26T05:36:45;19.70;;;13.35;;
78298;SDS011;67556;55.656;12.590;2024-02-26T05:39:11;19.23;;;13.27;;
78298;SDS011;67556;55.656;12.590;2024-02-26T05:41:55;18.70;;;13.30;;
78298;SDS011;67556;55.656;12.590;2024-02-26T05:44:29;18.23;;;12.43;;
78298;SDS011;67556;55.656;12.590;2024-02-26T05:47:14;16.05;;;11.93;;
78298;SDS011;67556;55.656;12.590;2024-02-26T05:49:55;17.80;;;12.68;;
78298;SDS011;67556;55.656;12.590;2024-02-26T05:52:42;17.75;;;12.45;;
78298;SDS011;67556;55.656;12.590;2024-02-26T05:55:26;19.25;;;12.35;;
78298;SDS011;67556;55.656;12.590;2024-02-26T05:57:59;18.75;;;13.00;;
78298;SDS011;67556;55.656;12.590;2024-02-26T06:00:46;19.92;;;12.50;;
78298;SDS011;67556;55.656;12.590;2024-02-26T06:03:13;20.00;;;13.07;;
78298;SDS011;67556;55.656;12.590;2024-02-26T06:05:58;19.58;;;13.20;;
78298;SDS011;67556;55.656;12.590;2024-02-26T06:08:43;18.08;;;12.63;;
78298;SDS011;67556;55.656;12.590;2024-02-26T06:11:10;18.95;;;12.50;;
78298;SDS011;67556;55.656;12.590;2024-02-26T06:13:55;21.70;;;13.80;;
78298;SDS011;67556;55.656;12.590;2024-02-26T06:16:23;20.65;;;13.50;;
78298;SDS011;67556;55.656;12.590;2024-02-26T06:19:14;21.27;;;13.07;;
78298;SDS011;67556;55.656;12.590;2024-02-26T06:21:40;21.30;;;13.45;;
78298;SDS011;67556;55.656;12.590;2024-02-26T06:24:25;16.83;;;11.55;;
78298;SDS011;67556;55.656;12.590;2024-02-26T06:26:52;18.27;;;13.30;;
78298;SDS011;67556;55.656;12.590;2024-02-26T06:29:37;20.75;;;13.52;;
78298;SDS011;67556;55.656;12.590;2024-02-26T06:32:06;20.85;;;13.45;;
78298;SDS011;67556;55.656;12.590;2024-02-26T06:34:34;20.60;;;13.18;;
78298;SDS011;67556;55.656;12.590;2024-02-26T06:37:18;19.25;;;12.77;;
78298;SDS011;67556;55.656;12.590;2024-02-26T06:39:53;18.85;;;13.13;;
78298;SDS011;67556;55.656;12.590;2024-02-26T06:42:38;20.42;;;13.70;;
78298;SDS011;67556;55.656;12.590;2024-02-26T06:45:16;21.63;;;13.95;;
78298;SDS011;67556;55.656;12.590;2024-02-26T06:48:03;19.15;;;12.90;;
78298;SDS011;67556;55.656;12.590;2024-02-26T06:50:48;20.17;;;14.23;;
78298;SDS011;67556;55.656;12.590;2024-02-26T06:53:33;21.33;;;13.48;;
78298;SDS011;67556;55.656;12.590;2024-02-26T06:56:00;19.90;;;13.07;;
78298;SDS011;67556;55.656;12.590;2024-02-26T06:58:45;21.40;;;12.77;;
78298;SDS011;67556;55.656;12.590;2024-02-26T07:01:12;19.75;;;14.27;;
78298;SDS011;67556;55.656;12.590;2024-02-26T07:03:59;21.58;;;13.68;;
78298;SDS011;67556;55.656;12.590;2024-02-26T07:06:26;21.88;;;14.73;;
78298;SDS011;67556;55.656;12.590;2024-02-26T07:09:11;19.33;;;12.88;;
78298;SDS011;67556;55.656;12.590;2024-02-26T07:11:47;20.98;;;13.68;;
78298;SDS011;67556;55.656;12.590;2024-02-26T07:14:32;20.48;;;12.77;;
78298;SDS011;67556;55.656;12.590;2024-02-26T07:17:17;22.02;;;14.50;;
78298;SDS011;67556;55.656;12.590;2024-02-26T07:19:46;21.73;;;14.40;;
78298;SDS011;67556;55.656;12.590;2024-02-26T07:22:31;23.30;;;14.63;;
78298;SDS011;67556;55.656;12.590;2024-02-26T07:24:57;23.08;;;15.15;;
78298;SDS011;67556;55.656;12.590;2024-02-26T07:27:42;24.30;;;15.50;;
78298;SDS011;67556;55.656;12.590;2024-02-26T07:30:09;20.85;;;14.77;;
78298;SDS011;67556;55.656;12.590;2024-02-26T07:32:54;25.52;;;16.65;;
78298;SDS011;67556;55.656;12.590;2024-02-26T07:35:21;24.25;;;15.95;;
78298;SDS011;67556;55.656;12.590;2024-02-26T07:38:06;24.00;;;14.88;;
78298;SDS011;67556;55.656;12.590;2024-02-26T07:40:51;24.13;;;15.07;;
78298;SDS011;67556;55.656;12.590;2024-02-26T07:43:36;27.30;;;16.17;;
78298;SDS011;67556;55.656;12.590;2024-02-26T07:46:22;26.08;;;16.30;;
78298;SDS011;67556;55.656;12.590;2024-02-26T07:48:50;22.23;;;14.82;;
78298;SDS011;67556;55.656;12.590;2024-02-26T07:51:37;23.73;;;14.30;;
78298;SDS011;67556;55.656;12.590;2024-02-26T07:54:04;23.73;;;16.02;;
78298;SDS011;67556;55.656;12.590;2024-02-26T07:56:49;24.95;;;15.50;;
78298;SDS011;67556;55.656;12.590;2024-02-26T07:59:22;23.42;;;16.02;;
78298;SDS011;67556;55.656;12.590;2024-02-26T08:01:56;26.38;;;16.75;;
78298;SDS011;67556;55.656;12.590;2024-02-26T08:04:39;24.65;;;16.02;;
78298;SDS011;67556;55.656;12.590;2024-02-26T08:07:26;24.50;;;15.57;;
78298;SDS011;67556;55.656;12.590;2024-02-26T08:10:12;27.25;;;16.40;;
78298;SDS011;67556;55.656;12.590;2024-02-26T08:12:57;24.67;;;16.08;;
78298;SDS011;67556;55.656;12.590;2024-02-26T08:15:48;28.83;;;16.88;;
78298;SDS011;67556;55.656;12.590;2024-02-26T08:18:16;27.60;;;15.98;;
78298;SDS011;67556;55.656;12.590;2024-02-26T08:21:08;25.58;;;16.23;;
78298;SDS011;67556;55.656;12.590;2024-02-26T08:23:36;27.10;;;16.40;;
78298;SDS011;67556;55.656;12.590;2024-02-26T08:26:21;25.17;;;16.38;;
78298;SDS011;67556;55.656;12.590;2024-02-26T08:29:07;23.77;;;15.52;;
78298;SDS011;67556;55.656;12.590;2024-02-26T08:31:34;24.55;;;15.25;;
78298;SDS011;67556;55.656;12.590;2024-02-26T08:34:04;23.27;;;14.93;;
78298;SDS011;67556;55.656;12.590;2024-02-26T08:36:48;24.48;;;16.10;;
78298;SDS011;67556;55.656;12.590;2024-02-26T08:39:20;24.38;;;15.77;;
78298;SDS011;67556;55.656;12.590;2024-02-26T08:42:05;25.15;;;16.02;;
78298;SDS011;67556;55.656;12.590;2024-02-26T08:44:31;25.58;;;15.95;;
78298;SDS011;67556;55.656;12.590;2024-02-26T08:47:16;24.58;;;15.35;;
78298;SDS011;67556;55.656;12.590;2024-02-26T08:50:01;20.23;;;13.77;;
78298;SDS011;67556;55.656;12.590;2024-02-26T08:52:49;20.33;;;13.68;;
78298;SDS011;67556;55.656;12.590;2024-02-26T08:55:36;18.60;;;11.82;;
78298;SDS011;67556;55.656;12.590;2024-02-26T08:58:02;18.58;;;12.68;;
78298;SDS011;67556;55.656;12.590;2024-02-26T09:00:47;16.40;;;12.00;;
78298;SDS011;67556;55.656;12.590;2024-02-26T09:03:13;18.42;;;12.05;;
78298;SDS011;67556;55.656;12.590;2024-02-26T09:05:59;15.30;;;10.73;;
78298;SDS011;67556;55.656;12.590;2024-02-26T09:08:34;15.40;;;11.10;;
78298;SDS011;67556;55.656;12.590;2024-02-26T09:11:21;12.93;;;9.02;;
78298;SDS011;67556;55.656;12.590;2024-02-26T09:13:47;15.13;;;11.25;;
78298;SDS011;67556;55.656;12.590;2024-02-26T09:16:32;16.15;;;11.45;;
78298;SDS011;67556;55.656;12.590;2024-02-26T09:19:07;15.65;;;11.15;;
78298;SDS011;67556;55.656;12.590;2024-02-26T09:21:34;18.15;;;13.25;;
78298;SDS011;67556;55.656;12.590;2024-02-26T09:24:09;18.88;;;13.88;;
78298;SDS011;67556;55.656;12.590;2024-02-26T09:26:51;18.40;;;13.38;;
78298;SDS011;67556;55.656;12.590;2024-02-26T09:29:36;19.83;;;14.07;;
78298;SDS011;67556;55.656;12.590;2024-02-26T09:32:09;18.92;;;13.25;;
78298;SDS011;67556;55.656;12.590;2024-02-26T09:34:36;17.70;;;13.27;;
78298;SDS011;67556;55.656;12.590;2024-02-26T09:37:27;18.90;;;12.90;;
78298;SDS011;67556;55.656;12.590;2024-02-26T09:39:54;17.42;;;14.05;;
78298;SDS011;67556;55.656;12.590;2024-02-26T09:42:29;18.88;;;12.85;;
78298;SDS011;67556;55.656;12.590;2024-02-26T09:45:04;18.10;;;12.88;;
78298;SDS011;67556;55.656;12.590;2024-02-26T09:47:45;15.40;;;11.05;;
78298;SDS011;67556;55.656;12.590;2024-02-26T09:50:32;14.53;;;11.17;;
78298;SDS011;67556;55.656;12.590;2024-02-26T09:52:58;14.32;;;10.52;;
78298;SDS011;67556;55.656;12.590;2024-02-26T09:55:46;13.68;;;10.75;;
78298;SDS011;67556;55.656;12.590;2024-02-26T09:58:14;15.38;;;10.32;;
78298;SDS011;67556;55.656;12.590;2024-02-26T10:01:03;14.43;;;9.95;;
78298;SDS011;67556;55.656;12.590;2024-02-26T10:06:18;12.00;;;8.50;;
78298;SDS011;67556;55.656;12.590;2024-02-26T10:08:45;14.40;;;9.48;;
78298;SDS011;67556;55.656;12.590;2024-02-26T10:11:30;14.00;;;9.90;;
78298;SDS011;67556;55.656;12.590;2024-02-26T10:13:58;15.10;;;10.88;;
78298;SDS011;67556;55.656;12.590;2024-02-26T10:16:43;13.88;;;9.38;;
78298;SDS011;67556;55.656;12.590;2024-02-26T10:19:09;10.60;;;8.52;;
78298;SDS011;67556;55.656;12.590;2024-02-26T10:22:15;12.75;;;8.65;;
78298;SDS011;67556;55.656;12.590;2024-02-26T10:25:00;8.93;;;7.00;;
78298;SDS011;67556;55.656;12.590;2024-02-26T10:27:28;9.23;;;7.10;;
78298;SDS011;67556;55.656;12.590;2024-02-26T10:30:17;11.07;;;7.40;;
78298;SDS011;67556;55.656;12.590;2024-02-26T10:33:03;9.10;;;6.85;;
78298;SDS011;67556;55.656;12.590;2024-02-26T10:35:38;9.32;;;7.35;;
78298;SDS011;67556;55.656;12.590;2024-02-26T10:38:12;12.95;;;8.20;;
78298;SDS011;67556;55.656;12.590;2024-02-26T10:40:57;12.15;;;7.32;;
78298;SDS011;67556;55.656;12.590;2024-02-26T10:43:30;9.60;;;7.80;;
78298;SDS011;67556;55.656;12.590;2024-02-26T10:46:16;11.18;;;7.60;;
78298;SDS011;67556;55.656;12.590;2024-02-26T10:48:48;11.20;;;8.45;;
78298;SDS011;67556;55.656;12.590;2024-02-26T10:51:16;11.23;;;8.55;;
78298;SDS011;67556;55.656;12.590;2024-02-26T10:54:02;11.13;;;7.75;;
78298;SDS011;67556;55.656;12.590;2024-02-26T10:56:33;11.43;;;8.38;;
78298;SDS011;67556;55.656;12.590;2024-02-26T10:59:03;7.80;;;6.68;;
78298;SDS011;67556;55.656;12.590;2024-02-26T11:01:31;9.80;;;7.53;;
78298;SDS011;67556;55.656;12.590;2024-02-26T11:03:58;10.27;;;7.50;;
78298;SDS011;67556;55.656;12.590;2024-02-26T11:06:27;9.82;;;8.05;;
78298;SDS011;67556;55.656;12.590;2024-02-26T11:09:01;9.95;;;7.68;;
78298;SDS011;67556;55.656;12.590;2024-02-26T11:11:29;11.80;;;7.55;;
78298;SDS011;67556;55.656;12.590;2024-02-26T11:14:04;11.25;;;8.35;;
78298;SDS011;67556;55.656;12.590;2024-02-26T11:16:49;14.48;;;9.68;;
78298;SDS011;67556;55.656;12.590;2024-02-26T11:19:29;12.73;;;8.60;;
78298;SDS011;67556;55.656;12.590;2024-02-26T11:22:21;10.43;;;7.90;;
78298;SDS011;67556;55.656;12.590;2024-02-26T11:24:54;9.13;;;6.85;;
78298;SDS011;67556;55.656;12.590;2024-02-26T11:27:42;9.52;;;6.57;;
78298;SDS011;67556;55.656;12.590;2024-02-26T11:30:09;9.32;;;7.32;;
78298;SDS011;67556;55.656;12.590;2024-02-26T11:32:56;10.77;;;7.38;;
78298;SDS011;67556;55.656;12.590;2024-02-26T11:35:42;9.20;;;7.10;;
78298;SDS011;67556;55.656;12.590;2024-02-26T11:38:17;8.15;;;6.25;;
78298;SDS011;67556;55.656;12.590;2024-02-26T11:40:44;8.52;;;6.65;;
78298;SDS011;67556;55.656;12.590;2024-02-26T11:43:10;10.80;;;7.30;;
78298;SDS011;67556;55.656;12.590;2024-02-26T11:45:50;8.27;;;6.93;;
78298;SDS011;67556;55.656;12.590;2024-02-26T11:48:21;8.63;;;6.82;;
78298;SDS011;67556;55.656;12.590;2024-02-26T11:50:50;8.25;;;6.50;;
78298;SDS011;67556;55.656;12.590;2024-02-26T11:53:21;9.25;;;6.47;;
78298;SDS011;67556;55.656;12.590;2024-02-26T11:58:58;8.43;;;6.40;;
78298;SDS011;67556;55.656;12.590;2024-02-26T12:01:39;8.57;;;7.00;;
78298;SDS011;67556;55.656;12.590;2024-02-26T12:04:07;12.38;;;7.50;;
78298;SDS011;67556;55.656;12.590;2024-02-26T12:06:44;11.25;;;8.13;;
78298;SDS011;67556;55.656;12.590;2024-02-26T12:09:31;12.40;;;9.43;;
78298;SDS011;67556;55.656;12.590;2024-02-26T12:12:00;9.95;;;7.72;;
78298;SDS011;67556;55.656;12.590;2024-02-26T12:14:50;10.25;;;8.15;;
78298;SDS011;67556;55.656;12.590;2024-02-26T12:17:19;11.65;;;8.60;;
78298;SDS011;67556;55.656;12.590;2024-02-26T12:19:49;12.30;;;7.43;;
78298;SDS011;67556;55.656;12.590;2024-02-26T12:22:18;11.07;;;7.90;;
78298;SDS011;67556;55.656;12.590;2024-02-26T12:24:58;11.10;;;6.90;;
78298;SDS011;67556;55.656;12.590;2024-02-26T12:27:44;9.10;;;6.97;;
78298;SDS011;67556;55.656;12.590;2024-02-26T12:30:11;8.48;;;6.07;;
78298;SDS011;67556;55.656;12.590;2024-02-26T12:32:43;7.85;;;6.55;;
78298;SDS011;67556;55.656;12.590;2024-02-26T12:35:27;7.78;;;5.60;;
78298;SDS011;67556;55.656;12.590;2024-02-26T12:37:56;8.15;;;6.03;;
78298;SDS011;67556;55.656;12.590;2024-02-26T12:40:25;6.53;;;5.57;;
78298;SDS011;67556;55.656;12.590;2024-02-26T12:43:01;7.78;;;5.93;;
78298;SDS011;67556;55.656;12.590;2024-02-26T12:45:34;6.93;;;5.25;;
78298;SDS011;67556;55.656;12.590;2024-02-26T12:48:03;8.00;;;5.85;;
78298;SDS011;67556;55.656;12.590;2024-02-26T12:50:39;5.53;;;4.50;;
78298;SDS011;67556;55.656;12.590;2024-02-26T12:53:09;5.43;;;4.55;;
78298;SDS011;67556;55.656;12.590;2024-02-26T12:55:42;8.98;;;4.72;;
78298;SDS011;67556;55.656;12.590;2024-02-26T12:58:21;6.88;;;4.85;;
78298;SDS011;67556;55.656;12.590;2024-02-26T13:00:52;7.38;;;5.30;;
78298;SDS011;67556;55.656;12.590;2024-02-26T13:03:21;6.82;;;4.10;;
78298;SDS011;67556;55.656;12.590;2024-02-26T13:05:52;5.97;;;4.00;;
78298;SDS011;67556;55.656;12.590;2024-02-26T13:08:19;5.43;;;4.05;;
78298;SDS011;67556;55.656;12.590;2024-02-26T13:10:52;5.57;;;4.45;;
78298;SDS011;67556;55.656;12.590;2024-02-26T13:13:37;5.10;;;4.15;;
78298;SDS011;67556;55.656;12.590;2024-02-26T13:16:23;5.68;;;4.20;;
78298;SDS011;67556;55.656;12.590;2024-02-26T13:18:50;5.18;;;3.90;;
78298;SDS011;67556;55.656;12.590;2024-02-26T13:24:04;5.05;;;3.92;;
78298;SDS011;67556;55.656;12.590;2024-02-26T13:26:38;5.95;;;4.20;;
78298;SDS011;67556;55.656;12.590;2024-02-26T13:29:16;5.95;;;4.70;;
78298;SDS011;67556;55.656;12.590;2024-02-26T13:31:42;6.90;;;4.85;;
78298;SDS011;67556;55.656;12.590;2024-02-26T13:34:22;6.10;;;4.22;;
78298;SDS011;67556;55.656;12.590;2024-02-26T13:36:49;5.90;;;4.35;;
78298;SDS011;67556;55.656;12.590;2024-02-26T13:39:24;6.70;;;4.68;;
78298;SDS011;67556;55.656;12.590;2024-02-26T13:41:57;5.05;;;4.15;;
78298;SDS011;67556;55.656;12.590;2024-02-26T13:44:25;4.45;;;3.35;;
78298;SDS011;67556;55.656;12.590;2024-02-26T13:46:53;3.88;;;3.45;;
78298;SDS011;67556;55.656;12.590;2024-02-26T13:49:30;4.72;;;3.90;;
78298;SDS011;67556;55.656;12.590;2024-02-26T13:51:57;6.07;;;3.72;;
78298;SDS011;67556;55.656;12.590;2024-02-26T13:54:38;4.90;;;3.55;;
78298;SDS011;67556;55.656;12.590;2024-02-26T13:57:17;7.95;;;3.80;;
78298;SDS011;67556;55.656;12.590;2024-02-26T13:59:44;4.35;;;3.30;;
78298;SDS011;67556;55.656;12.590;2024-02-26T14:02:11;5.05;;;2.90;;
78298;SDS011;67556;55.656;12.590;2024-02-26T14:04:38;4.55;;;3.40;;
78298;SDS011;67556;55.656;12.590;2024-02-26T14:07:05;5.18;;;3.65;;
78298;SDS011;67556;55.656;12.590;2024-02-26T14:09:32;4.68;;;3.35;;
78298;SDS011;67556;55.656;12.590;2024-02-26T14:12:01;5.50;;;3.60;;
78298;SDS011;67556;55.656;12.590;2024-02-26T14:14:28;4.50;;;3.85;;
78298;SDS011;67556;55.656;12.590;2024-02-26T14:16:57;6.28;;;4.50;;
78298;SDS011;67556;55.656;12.590;2024-02-26T14:19:24;8.60;;;5.00;;
78298;SDS011;67556;55.656;12.590;2024-02-26T14:21:50;6.15;;;4.35;;
78298;SDS011;67556;55.656;12.590;2024-02-26T14:24:23;4.97;;;4.18;;
78298;SDS011;67556;55.656;12.590;2024-02-26T14:26:51;5.47;;;3.90;;
78298;SDS011;67556;55.656;12.590;2024-02-26T14:29:26;4.90;;;3.75;;
78298;SDS011;67556;55.656;12.590;2024-02-26T14:31:55;6.35;;;4.18;;
78298;SDS011;67556;55.656;12.590;2024-02-26T14:34:28;5.30;;;4.43;;
78298;SDS011;67556;55.656;12.590;2024-02-26T14:37:04;5.55;;;4.43;;
78298;SDS011;67556;55.656;12.590;2024-02-26T14:39:37;4.88;;;3.85;;
78298;SDS011;67556;55.656;12.590;2024-02-26T14:42:11;5.32;;;4.30;;
78298;SDS011;67556;55.656;12.590;2024-02-26T14:44:41;6.63;;;4.95;;
78298;SDS011;67556;55.656;12.590;2024-02-26T14:47:07;5.10;;;4.30;;
78298;SDS011;67556;55.656;12.590;2024-02-26T14:49:40;5.50;;;4.85;;
78298;SDS011;67556;55.656;12.590;2024-02-26T14:52:06;6.15;;;4.55;;
78298;SDS011;67556;55.656;12.590;2024-02-26T14:54:33;6.32;;;4.93;;
78298;SDS011;67556;55.656;12.590;2024-02-26T14:57:10;7.03;;;4.40;;
78298;SDS011;67556;55.656;12.590;2024-02-26T14:59:45;5.40;;;4.07;;
78298;SDS011;67556;55.656;12.590;2024-02-26T15:02:15;6.30;;;3.90;;
78298;SDS011;67556;55.656;12.590;2024-02-26T15:04:44;6.57;;;4.07;;
78298;SDS011;67556;55.656;12.590;2024-02-26T15:07:20;6.28;;;4.45;;
78298;SDS011;67556;55.656;12.590;2024-02-26T15:09:48;4.85;;;4.10;;
78298;SDS011;67556;55.656;12.590;2024-02-26T15:12:35;5.80;;;4.10;;
78298;SDS011;67556;55.656;12.590;2024-02-26T15:15:02;5.25;;;4.47;;
78298;SDS011;67556;55.656;12.590;2024-02-26T15:17:47;6.72;;;5.38;;
78298;SDS011;67556;55.656;12.590;2024-02-26T15:20:15;7.10;;;5.30;;
78298;SDS011;67556;55.656;12.590;2024-02-26T15:22:49;6.57;;;4.82;;